9.29C
пасмурно
пасмурно
Дата и времяТемператураДавление, мм рт.ст.Влажность, %Осадки
МинимумМаксимум
16.08.2022 23:008.2C9.03C75790пасмурно
17.08.2022 02:008.35C8.71C75893небольшой дождь
17.08.2022 05:008.17C8.17C75986пасмурно
17.08.2022 08:009.18C9.18C75976пасмурно
17.08.2022 11:0010.22C10.22C76064пасмурно
17.08.2022 14:0011.01C11.01C76159пасмурно
17.08.2022 17:009.81C9.81C76173небольшой дождь
17.08.2022 20:007.15C7.15C76286небольшой дождь
17.08.2022 23:006.55C6.55C76290пасмурно
18.08.2022 02:006.13C6.13C76294пасмурно
18.08.2022 05:006.48C6.48C76295пасмурно
18.08.2022 08:007.86C7.86C76388пасмурно
18.08.2022 11:0010.55C10.55C76477пасмурно
18.08.2022 14:0013.88C13.88C76464пасмурно
18.08.2022 17:0012.97C12.97C76476пасмурно
18.08.2022 20:0010C10C76391облачно с прояснениями
18.08.2022 23:0011.15C11.15C76385пасмурно
19.08.2022 02:0011.08C11.08C76288небольшой дождь
19.08.2022 05:0010.63C10.63C76384пасмурно
19.08.2022 08:0012.39C12.39C76359пасмурно
19.08.2022 11:0015.3C15.3C76445переменная облачность
19.08.2022 14:0016.64C16.64C76341ясно
19.08.2022 17:0015.9C15.9C76443ясно
19.08.2022 20:0010.37C10.37C76466ясно
19.08.2022 23:008.27C8.27C76574ясно
20.08.2022 02:007.23C7.23C76577облачно с прояснениями
20.08.2022 05:006.75C6.75C76576облачно с прояснениями
20.08.2022 08:0012.54C12.54C76455небольшая облачность
20.08.2022 11:0016.19C16.19C76351небольшая облачность
20.08.2022 14:0017.22C17.22C76262облачно с прояснениями
20.08.2022 17:0015.77C15.77C76273облачно с прояснениями
20.08.2022 20:0012.13C12.13C76292небольшой дождь
20.08.2022 23:0011.84C11.84C76197небольшой дождь
21.08.2022 02:0012.21C12.21C76095небольшой дождь
21.08.2022 05:008.97C8.97C76193пасмурно
21.08.2022 08:007.87C7.87C76291пасмурно
21.08.2022 11:008.13C8.13C76287пасмурно
21.08.2022 14:007.05C7.05C76485пасмурно
21.08.2022 17:008.16C8.16C76577пасмурно
21.08.2022 20:009.34C9.34C76568пасмурно
Дата и время наблюдения: 16.08.2022 21:19:12